sensor_id;sensor_type;location;lat;lon;timestamp;temperature;humidity
1367;DHT22;16877;48.810;9.282;2023-02-01T00:01:52;13.00;53.20
1367;DHT22;16877;48.810;9.282;2023-02-01T00:04:20;13.00;53.30
1367;DHT22;16877;48.810;9.282;2023-02-01T00:06:47;13.00;53.30
1367;DHT22;16877;48.810;9.282;2023-02-01T00:09:15;13.00;53.30
1367;DHT22;16877;48.810;9.282;2023-02-01T00:11:44;13.00;53.50
1367;DHT22;16877;48.810;9.282;2023-02-01T00:14:12;12.90;53.40
1367;DHT22;16877;48.810;9.282;2023-02-01T00:16:45;12.90;53.30
1367;DHT22;16877;48.810;9.282;2023-02-01T00:19:14;12.90;53.40
1367;DHT22;16877;48.810;9.282;2023-02-01T00:21:42;12.90;53.30
1367;DHT22;16877;48.810;9.282;2023-02-01T00:24:16;12.90;53.30
1367;DHT22;16877;48.810;9.282;2023-02-01T00:26:45;12.80;53.20
1367;DHT22;16877;48.810;9.282;2023-02-01T00:29:16;12.80;53.40
1367;DHT22;16877;48.810;9.282;2023-02-01T00:31:43;12.90;53.50
1367;DHT22;16877;48.810;9.282;2023-02-01T00:34:12;12.90;53.60
1367;DHT22;16877;48.810;9.282;2023-02-01T00:36:41;12.90;53.70
1367;DHT22;16877;48.810;9.282;2023-02-01T00:39:10;12.90;53.70
1367;DHT22;16877;48.810;9.282;2023-02-01T00:41:38;13.00;54.50
1367;DHT22;16877;48.810;9.282;2023-02-01T00:44:09;13.00;54.00
1367;DHT22;16877;48.810;9.282;2023-02-01T00:46:37;13.00;53.80
1367;DHT22;16877;48.810;9.282;2023-02-01T00:49:04;13.00;53.70
1367;DHT22;16877;48.810;9.282;2023-02-01T00:51:33;13.00;53.80
1367;DHT22;16877;48.810;9.282;2023-02-01T00:54:02;12.90;53.70
1367;DHT22;16877;48.810;9.282;2023-02-01T00:56:30;12.90;53.50
1367;DHT22;16877;48.810;9.282;2023-02-01T00:58:57;12.90;53.50
1367;DHT22;16877;48.810;9.282;2023-02-01T01:01:27;12.80;53.40
1367;DHT22;16877;48.810;9.282;2023-02-01T01:03:55;12.80;53.30
1367;DHT22;16877;48.810;9.282;2023-02-01T01:06:25;12.80;53.40
1367;DHT22;16877;48.810;9.282;2023-02-01T01:08:55;12.80;53.60
1367;DHT22;16877;48.810;9.282;2023-02-01T01:11:23;12.90;53.60
1367;DHT22;16877;48.810;9.282;2023-02-01T01:13:52;12.90;53.50
1367;DHT22;16877;48.810;9.282;2023-02-01T01:16:21;12.90;53.60
1367;DHT22;16877;48.810;9.282;2023-02-01T01:18:50;12.80;53.50
1367;DHT22;16877;48.810;9.282;2023-02-01T01:21:17;12.70;53.40
1367;DHT22;16877;48.810;9.282;2023-02-01T01:23:45;12.70;53.40
1367;DHT22;16877;48.810;9.282;2023-02-01T01:26:15;12.70;53.30
1367;DHT22;16877;48.810;9.282;2023-02-01T01:28:42;12.70;53.30
1367;DHT22;16877;48.810;9.282;2023-02-01T01:31:10;12.70;53.30
1367;DHT22;16877;48.810;9.282;2023-02-01T01:33:38;12.60;53.30
1367;DHT22;16877;48.810;9.282;2023-02-01T01:36:07;12.60;53.30
1367;DHT22;16877;48.810;9.282;2023-02-01T01:38:37;12.60;53.30
1367;DHT22;16877;48.810;9.282;2023-02-01T01:41:05;12.60;53.30
1367;DHT22;16877;48.810;9.282;2023-02-01T01:43:51;12.60;53.30
1367;DHT22;16877;48.810;9.282;2023-02-01T01:46:20;12.60;53.40
1367;DHT22;16877;48.810;9.282;2023-02-01T01:49:05;12.60;53.60
1367;DHT22;16877;48.810;9.282;2023-02-01T01:51:41;12.60;53.50
1367;DHT22;16877;48.810;9.282;2023-02-01T01:54:13;12.60;53.60
1367;DHT22;16877;48.810;9.282;2023-02-01T01:56:48;12.60;53.60
1367;DHT22;16877;48.810;9.282;2023-02-01T01:59:17;12.60;53.60
1367;DHT22;16877;48.810;9.282;2023-02-01T02:01:45;12.60;53.60
1367;DHT22;16877;48.810;9.282;2023-02-01T02:04:14;12.60;53.70
1367;DHT22;16877;48.810;9.282;2023-02-01T02:06:47;12.70;54.00
1367;DHT22;16877;48.810;9.282;2023-02-01T02:09:17;12.70;54.00
1367;DHT22;16877;48.810;9.282;2023-02-01T02:11:44;12.70;53.90
1367;DHT22;16877;48.810;9.282;2023-02-01T02:14:14;12.70;53.80
1367;DHT22;16877;48.810;9.282;2023-02-01T02:16:54;12.80;54.00
1367;DHT22;16877;48.810;9.282;2023-02-01T02:23:02;12.80;53.90
1367;DHT22;16877;48.810;9.282;2023-02-01T02:25:53;12.80;53.80
1367;DHT22;16877;48.810;9.282;2023-02-01T02:28:47;12.80;53.80
1367;DHT22;16877;48.810;9.282;2023-02-01T02:31:39;12.80;53.90
1367;DHT22;16877;48.810;9.282;2023-02-01T02:34:16;12.80;53.90
1367;DHT22;16877;48.810;9.282;2023-02-01T02:36:51;12.80;53.80
1367;DHT22;16877;48.810;9.282;2023-02-01T02:39:24;12.80;53.90
1367;DHT22;16877;48.810;9.282;2023-02-01T02:42:01;12.80;54.10
1367;DHT22;16877;48.810;9.282;2023-02-01T02:44:48;12.80;54.00
1367;DHT22;16877;48.810;9.282;2023-02-01T02:47:36;12.80;54.10
1367;DHT22;16877;48.810;9.282;2023-02-01T02:50:12;12.80;54.20
1367;DHT22;16877;48.810;9.282;2023-02-01T02:53:03;12.90;54.30
1367;DHT22;16877;48.810;9.282;2023-02-01T02:55:49;12.90;54.30
1367;DHT22;16877;48.810;9.282;2023-02-01T02:58:17;12.90;54.30
1367;DHT22;16877;48.810;9.282;2023-02-01T03:01:03;12.90;54.20
1367;DHT22;16877;48.810;9.282;2023-02-01T03:03:49;12.90;54.30
1367;DHT22;16877;48.810;9.282;2023-02-01T03:06:37;12.90;54.20
1367;DHT22;16877;48.810;9.282;2023-02-01T03:09:13;12.90;54.10
1367;DHT22;16877;48.810;9.282;2023-02-01T03:11:47;12.90;54.10
1367;DHT22;16877;48.810;9.282;2023-02-01T03:14:35;12.90;54.00
1367;DHT22;16877;48.810;9.282;2023-02-01T03:17:08;12.90;54.20
1367;DHT22;16877;48.810;9.282;2023-02-01T03:19:41;12.90;54.10
1367;DHT22;16877;48.810;9.282;2023-02-01T03:22:18;12.90;54.10
1367;DHT22;16877;48.810;9.282;2023-02-01T03:24:49;13.00;54.40
1367;DHT22;16877;48.810;9.282;2023-02-01T03:27:21;13.00;54.40
1367;DHT22;16877;48.810;9.282;2023-02-01T03:29:54;13.00;54.30
1367;DHT22;16877;48.810;9.282;2023-02-01T03:32:23;13.00;54.20
1367;DHT22;16877;48.810;9.282;2023-02-01T03:34:51;13.00;54.30
1367;DHT22;16877;48.810;9.282;2023-02-01T03:37:23;13.00;54.10
1367;DHT22;16877;48.810;9.282;2023-02-01T03:39:57;12.90;53.80
1367;DHT22;16877;48.810;9.282;2023-02-01T03:42:30;12.90;54.00
1367;DHT22;16877;48.810;9.282;2023-02-01T03:45:04;12.90;54.30
1367;DHT22;16877;48.810;9.282;2023-02-01T03:47:35;12.90;54.20
1367;DHT22;16877;48.810;9.282;2023-02-01T03:50:06;12.90;54.30
1367;DHT22;16877;48.810;9.282;2023-02-01T03:52:39;12.80;54.20
1367;DHT22;16877;48.810;9.282;2023-02-01T03:55:07;12.80;54.30
1367;DHT22;16877;48.810;9.282;2023-02-01T03:57:38;12.80;54.30
1367;DHT22;16877;48.810;9.282;2023-02-01T04:00:09;12.80;54.30
1367;DHT22;16877;48.810;9.282;2023-02-01T04:02:37;12.80;54.30
1367;DHT22;16877;48.810;9.282;2023-02-01T04:05:05;12.80;54.50
1367;DHT22;16877;48.810;9.282;2023-02-01T04:07:32;12.80;54.50
1367;DHT22;16877;48.810;9.282;2023-02-01T04:10:01;12.80;54.20
1367;DHT22;16877;48.810;9.282;2023-02-01T04:12:29;12.80;54.00
1367;DHT22;16877;48.810;9.282;2023-02-01T04:14:56;12.80;54.10
1367;DHT22;16877;48.810;9.282;2023-02-01T04:17:24;12.80;53.90
1367;DHT22;16877;48.810;9.282;2023-02-01T04:19:51;12.80;53.90
1367;DHT22;16877;48.810;9.282;2023-02-01T04:22:19;12.80;54.10
1367;DHT22;16877;48.810;9.282;2023-02-01T04:24:46;12.80;54.30
1367;DHT22;16877;48.810;9.282;2023-02-01T04:27:15;12.80;54.50
1367;DHT22;16877;48.810;9.282;2023-02-01T04:29:46;12.80;54.60
1367;DHT22;16877;48.810;9.282;2023-02-01T04:32:14;12.80;54.50
1367;DHT22;16877;48.810;9.282;2023-02-01T04:34:42;12.80;54.60
1367;DHT22;16877;48.810;9.282;2023-02-01T04:37:10;12.80;54.40
1367;DHT22;16877;48.810;9.282;2023-02-01T04:39:37;12.70;54.50
1367;DHT22;16877;48.810;9.282;2023-02-01T04:42:04;12.70;54.50
1367;DHT22;16877;48.810;9.282;2023-02-01T04:44:33;12.70;54.30
1367;DHT22;16877;48.810;9.282;2023-02-01T04:47:02;12.70;54.30
1367;DHT22;16877;48.810;9.282;2023-02-01T04:49:30;12.60;54.10
1367;DHT22;16877;48.810;9.282;2023-02-01T04:51:57;12.60;54.20
1367;DHT22;16877;48.810;9.282;2023-02-01T04:54:25;12.60;54.30
1367;DHT22;16877;48.810;9.282;2023-02-01T04:56:52;12.60;54.20
1367;DHT22;16877;48.810;9.282;2023-02-01T04:59:21;12.60;54.00
1367;DHT22;16877;48.810;9.282;2023-02-01T05:01:53;12.60;54.10
1367;DHT22;16877;48.810;9.282;2023-02-01T05:04:21;12.60;54.10
1367;DHT22;16877;48.810;9.282;2023-02-01T05:06:48;12.60;54.10
1367;DHT22;16877;48.810;9.282;2023-02-01T05:09:16;12.60;54.10
1367;DHT22;16877;48.810;9.282;2023-02-01T05:11:44;12.70;54.40
1367;DHT22;16877;48.810;9.282;2023-02-01T05:14:28;12.70;54.50
1367;DHT22;16877;48.810;9.282;2023-02-01T05:17:07;12.70;54.50
1367;DHT22;16877;48.810;9.282;2023-02-01T05:19:34;12.60;54.60
1367;DHT22;16877;48.810;9.282;2023-02-01T05:22:02;12.60;54.70
1367;DHT22;16877;48.810;9.282;2023-02-01T05:24:29;12.70;54.60
1367;DHT22;16877;48.810;9.282;2023-02-01T05:26:57;12.60;54.50
1367;DHT22;16877;48.810;9.282;2023-02-01T05:29:24;12.70;54.40
1367;DHT22;16877;48.810;9.282;2023-02-01T05:31:51;12.70;54.40
1367;DHT22;16877;48.810;9.282;2023-02-01T05:34:21;12.70;54.50
1367;DHT22;16877;48.810;9.282;2023-02-01T05:36:48;12.70;54.40
1367;DHT22;16877;48.810;9.282;2023-02-01T05:39:16;12.70;54.40
1367;DHT22;16877;48.810;9.282;2023-02-01T05:41:44;12.70;54.40
1367;DHT22;16877;48.810;9.282;2023-02-01T05:44:11;12.70;54.40
1367;DHT22;16877;48.810;9.282;2023-02-01T05:46:40;12.70;54.30
1367;DHT22;16877;48.810;9.282;2023-02-01T05:49:07;12.70;54.20
1367;DHT22;16877;48.810;9.282;2023-02-01T05:51:38;12.70;54.10
1367;DHT22;16877;48.810;9.282;2023-02-01T05:54:05;12.70;54.10
1367;DHT22;16877;48.810;9.282;2023-02-01T05:56:33;12.70;54.20
1367;DHT22;16877;48.810;9.282;2023-02-01T05:59:00;12.70;54.40
1367;DHT22;16877;48.810;9.282;2023-02-01T06:01:28;12.70;54.40
1367;DHT22;16877;48.810;9.282;2023-02-01T06:03:55;12.80;54.50
1367;DHT22;16877;48.810;9.282;2023-02-01T06:06:23;12.80;54.40
1367;DHT22;16877;48.810;9.282;2023-02-01T06:08:52;12.80;54.40
1367;DHT22;16877;48.810;9.282;2023-02-01T06:11:19;12.80;54.50
1367;DHT22;16877;48.810;9.282;2023-02-01T06:13:47;12.80;54.50
1367;DHT22;16877;48.810;9.282;2023-02-01T06:16:14;12.80;54.50
1367;DHT22;16877;48.810;9.282;2023-02-01T06:18:42;12.80;54.40
1367;DHT22;16877;48.810;9.282;2023-02-01T06:21:09;12.80;54.40
1367;DHT22;16877;48.810;9.282;2023-02-01T06:23:39;12.80;54.30
1367;DHT22;16877;48.810;9.282;2023-02-01T06:26:09;12.90;54.50
1367;DHT22;16877;48.810;9.282;2023-02-01T06:28:37;12.80;54.50
1367;DHT22;16877;48.810;9.282;2023-02-01T06:31:06;12.90;54.80
1367;DHT22;16877;48.810;9.282;2023-02-01T06:33:34;12.90;54.80
1367;DHT22;16877;48.810;9.282;2023-02-01T06:36:04;12.90;54.90
1367;DHT22;16877;48.810;9.282;2023-02-01T06:38:35;13.00;55.10
1367;DHT22;16877;48.810;9.282;2023-02-01T06:41:03;13.00;55.10
1367;DHT22;16877;48.810;9.282;2023-02-01T06:43:32;13.10;55.10
1367;DHT22;16877;48.810;9.282;2023-02-01T06:46:00;13.10;55.00
1367;DHT22;16877;48.810;9.282;2023-02-01T06:48:28;13.10;55.10
1367;DHT22;16877;48.810;9.282;2023-02-01T06:50:55;13.10;54.90
1367;DHT22;16877;48.810;9.282;2023-02-01T06:53:27;13.10;54.80
1367;DHT22;16877;48.810;9.282;2023-02-01T06:55:56;13.10;54.60
1367;DHT22;16877;48.810;9.282;2023-02-01T06:58:28;13.10;54.70
1367;DHT22;16877;48.810;9.282;2023-02-01T07:00:57;13.10;54.60
1367;DHT22;16877;48.810;9.282;2023-02-01T07:03:24;13.10;54.50
1367;DHT22;16877;48.810;9.282;2023-02-01T07:05:57;13.10;54.60
1367;DHT22;16877;48.810;9.282;2023-02-01T07:08:25;13.10;54.70
1367;DHT22;16877;48.810;9.282;2023-02-01T07:10:52;13.10;54.70
1367;DHT22;16877;48.810;9.282;2023-02-01T07:13:20;13.20;55.30
1367;DHT22;16877;48.810;9.282;2023-02-01T07:15:47;13.10;54.70
1367;DHT22;16877;48.810;9.282;2023-02-01T07:18:18;13.20;54.70
1367;DHT22;16877;48.810;9.282;2023-02-01T07:20:49;13.20;54.70
1367;DHT22;16877;48.810;9.282;2023-02-01T07:23:17;13.20;54.80
1367;DHT22;16877;48.810;9.282;2023-02-01T07:25:46;13.20;54.80
1367;DHT22;16877;48.810;9.282;2023-02-01T07:28:17;13.20;54.60
1367;DHT22;16877;48.810;9.282;2023-02-01T07:30:45;13.20;54.50
1367;DHT22;16877;48.810;9.282;2023-02-01T07:33:19;13.20;54.40
1367;DHT22;16877;48.810;9.282;2023-02-01T07:35:47;13.20;54.30
1367;DHT22;16877;48.810;9.282;2023-02-01T07:38:15;13.20;54.20
1367;DHT22;16877;48.810;9.282;2023-02-01T07:40:42;13.20;54.20
1367;DHT22;16877;48.810;9.282;2023-02-01T07:43:18;13.20;54.10
1367;DHT22;16877;48.810;9.282;2023-02-01T07:45:51;13.30;54.30
1367;DHT22;16877;48.810;9.282;2023-02-01T07:48:24;13.30;54.20
1367;DHT22;16877;48.810;9.282;2023-02-01T07:51:02;13.30;54.20
1367;DHT22;16877;48.810;9.282;2023-02-01T07:53:31;13.30;54.20
1367;DHT22;16877;48.810;9.282;2023-02-01T07:55:59;13.30;54.10
1367;DHT22;16877;48.810;9.282;2023-02-01T07:58:28;13.40;54.30
1367;DHT22;16877;48.810;9.282;2023-02-01T08:00:55;13.40;54.20
1367;DHT22;16877;48.810;9.282;2023-02-01T08:03:43;13.40;54.00
1367;DHT22;16877;48.810;9.282;2023-02-01T08:06:10;13.40;53.90
1367;DHT22;16877;48.810;9.282;2023-02-01T08:08:38;13.60;59.40
1367;DHT22;16877;48.810;9.282;2023-02-01T08:11:06;13.60;58.10
1367;DHT22;16877;48.810;9.282;2023-02-01T08:13:34;13.70;57.90
1367;DHT22;16877;48.810;9.282;2023-02-01T08:16:04;13.80;55.90
1367;DHT22;16877;48.810;9.282;2023-02-01T08:18:32;13.80;54.90
1367;DHT22;16877;48.810;9.282;2023-02-01T08:21:08;13.90;54.60
1367;DHT22;16877;48.810;9.282;2023-02-01T08:23:39;13.90;54.30
1367;DHT22;16877;48.810;9.282;2023-02-01T08:26:08;13.80;53.80
1367;DHT22;16877;48.810;9.282;2023-02-01T08:28:36;13.80;53.60
1367;DHT22;16877;48.810;9.282;2023-02-01T08:31:06;13.80;53.60
1367;DHT22;16877;48.810;9.282;2023-02-01T08:33:34;13.70;53.40
1367;DHT22;16877;48.810;9.282;2023-02-01T08:36:09;13.80;53.50
1367;DHT22;16877;48.810;9.282;2023-02-01T08:38:39;13.90;53.70
1367;DHT22;16877;48.810;9.282;2023-02-01T08:41:07;13.90;54.20
1367;DHT22;16877;48.810;9.282;2023-02-01T08:44:00;13.90;53.80
1367;DHT22;16877;48.810;9.282;2023-02-01T08:46:28;13.90;53.70
1367;DHT22;16877;48.810;9.282;2023-02-01T08:48:58;13.90;53.80
1367;DHT22;16877;48.810;9.282;2023-02-01T08:51:28;13.90;53.50
1367;DHT22;16877;48.810;9.282;2023-02-01T08:53:56;14.00;53.60
1367;DHT22;16877;48.810;9.282;2023-02-01T08:56:24;14.00;53.40
1367;DHT22;16877;48.810;9.282;2023-02-01T08:58:54;14.00;53.40
1367;DHT22;16877;48.810;9.282;2023-02-01T09:01:30;14.00;53.40
1367;DHT22;16877;48.810;9.282;2023-02-01T09:04:00;14.00;53.40
1367;DHT22;16877;48.810;9.282;2023-02-01T09:06:31;14.00;53.30
1367;DHT22;16877;48.810;9.282;2023-02-01T09:08:58;14.00;53.10
1367;DHT22;16877;48.810;9.282;2023-02-01T09:11:26;14.00;53.00
1367;DHT22;16877;48.810;9.282;2023-02-01T09:13:54;14.00;52.60
1367;DHT22;16877;48.810;9.282;2023-02-01T09:16:21;14.00;52.50
1367;DHT22;16877;48.810;9.282;2023-02-01T09:18:48;13.90;52.20
1367;DHT22;16877;48.810;9.282;2023-02-01T09:21:17;14.00;52.20
1367;DHT22;16877;48.810;9.282;2023-02-01T09:23:46;14.00;52.00
1367;DHT22;16877;48.810;9.282;2023-02-01T09:26:19;13.90;51.90
1367;DHT22;16877;48.810;9.282;2023-02-01T09:28:50;13.90;51.70
1367;DHT22;16877;48.810;9.282;2023-02-01T09:31:27;13.80;51.60
1367;DHT22;16877;48.810;9.282;2023-02-01T09:33:55;13.90;51.90
1367;DHT22;16877;48.810;9.282;2023-02-01T09:36:27;13.90;51.90
1367;DHT22;16877;48.810;9.282;2023-02-01T09:38:57;13.90;51.70
1367;DHT22;16877;48.810;9.282;2023-02-01T09:41:35;13.90;51.60
1367;DHT22;16877;48.810;9.282;2023-02-01T09:44:16;14.00;51.60
1367;DHT22;16877;48.810;9.282;2023-02-01T09:46:46;14.00;51.70
1367;DHT22;16877;48.810;9.282;2023-02-01T09:49:22;14.00;51.60
1367;DHT22;16877;48.810;9.282;2023-02-01T09:51:52;14.00;51.40
1367;DHT22;16877;48.810;9.282;2023-02-01T09:54:25;14.00;51.40
1367;DHT22;16877;48.810;9.282;2023-02-01T09:56:56;14.00;51.20
1367;DHT22;16877;48.810;9.282;2023-02-01T09:59:33;14.00;50.70
1367;DHT22;16877;48.810;9.282;2023-02-01T10:02:13;14.00;50.60
1367;DHT22;16877;48.810;9.282;2023-02-01T10:04:41;14.00;50.70
1367;DHT22;16877;48.810;9.282;2023-02-01T10:07:17;14.10;50.90
1367;DHT22;16877;48.810;9.282;2023-02-01T10:09:59;14.10;51.00
1367;DHT22;16877;48.810;9.282;2023-02-01T10:15:32;14.20;50.70
1367;DHT22;16877;48.810;9.282;2023-02-01T10:18:23;14.20;50.50
1367;DHT22;16877;48.810;9.282;2023-02-01T10:21:03;14.20;50.50
1367;DHT22;16877;48.810;9.282;2023-02-01T10:23:51;14.20;51.00
1367;DHT22;16877;48.810;9.282;2023-02-01T10:26:29;14.30;50.60
1367;DHT22;16877;48.810;9.282;2023-02-01T10:29:02;14.40;50.30
1367;DHT22;16877;48.810;9.282;2023-02-01T10:31:31;14.40;50.10
1367;DHT22;16877;48.810;9.282;2023-02-01T10:34:11;14.50;50.00
1367;DHT22;16877;48.810;9.282;2023-02-01T10:36:45;14.50;49.70
1367;DHT22;16877;48.810;9.282;2023-02-01T10:39:16;14.50;49.60
1367;DHT22;16877;48.810;9.282;2023-02-01T10:41:46;14.50;49.40
1367;DHT22;16877;48.810;9.282;2023-02-01T10:44:16;14.50;49.50
1367;DHT22;16877;48.810;9.282;2023-02-01T10:46:43;14.50;49.70
1367;DHT22;16877;48.810;9.282;2023-02-01T10:49:16;14.60;49.80
1367;DHT22;16877;48.810;9.282;2023-02-01T10:51:47;14.60;49.30
1367;DHT22;16877;48.810;9.282;2023-02-01T10:54:18;14.60;48.90
1367;DHT22;16877;48.810;9.282;2023-02-01T10:56:48;14.60;49.00
1367;DHT22;16877;48.810;9.282;2023-02-01T10:59:17;14.60;49.00
1367;DHT22;16877;48.810;9.282;2023-02-01T11:01:50;14.60;48.90
1367;DHT22;16877;48.810;9.282;2023-02-01T11:04:19;14.60;48.60
1367;DHT22;16877;48.810;9.282;2023-02-01T11:06:48;14.60;48.60
1367;DHT22;16877;48.810;9.282;2023-02-01T11:09:18;14.60;48.90
1367;DHT22;16877;48.810;9.282;2023-02-01T11:11:57;14.60;48.90
1367;DHT22;16877;48.810;9.282;2023-02-01T11:14:37;14.60;48.90
1367;DHT22;16877;48.810;9.282;2023-02-01T11:17:21;14.60;48.80
1367;DHT22;16877;48.810;9.282;2023-02-01T11:19:57;14.60;48.80
1367;DHT22;16877;48.810;9.282;2023-02-01T11:22:27;14.60;48.90
1367;DHT22;16877;48.810;9.282;2023-02-01T11:24:56;14.60;48.60
1367;DHT22;16877;48.810;9.282;2023-02-01T11:27:25;14.60;48.50
1367;DHT22;16877;48.810;9.282;2023-02-01T11:29:55;14.60;48.50
1367;DHT22;16877;48.810;9.282;2023-02-01T11:32:30;14.60;48.20
1367;DHT22;16877;48.810;9.282;2023-02-01T11:35:00;14.60;48.30
1367;DHT22;16877;48.810;9.282;2023-02-01T11:37:30;14.50;48.00
1367;DHT22;16877;48.810;9.282;2023-02-01T11:40:00;14.50;48.10
1367;DHT22;16877;48.810;9.282;2023-02-01T11:42:29;14.50;48.00
1367;DHT22;16877;48.810;9.282;2023-02-01T11:45:17;14.50;47.70
1367;DHT22;16877;48.810;9.282;2023-02-01T11:47:45;14.50;47.60
1367;DHT22;16877;48.810;9.282;2023-02-01T11:50:17;14.50;47.80
1367;DHT22;16877;48.810;9.282;2023-02-01T11:53:02;14.60;48.00
1367;DHT22;16877;48.810;9.282;2023-02-01T11:55:55;14.50;48.00
1367;DHT22;16877;48.810;9.282;2023-02-01T11:58:33;14.60;48.10
1367;DHT22;16877;48.810;9.282;2023-02-01T12:01:15;14.60;47.90
1367;DHT22;16877;48.810;9.282;2023-02-01T12:04:11;14.60;47.60
1367;DHT22;16877;48.810;9.282;2023-02-01T12:06:47;14.60;47.40
1367;DHT22;16877;48.810;9.282;2023-02-01T12:12:17;14.60;47.10
1367;DHT22;16877;48.810;9.282;2023-02-01T12:15:00;14.60;47.20
1367;DHT22;16877;48.810;9.282;2023-02-01T12:17:47;14.60;47.20
1367;DHT22;16877;48.810;9.282;2023-02-01T12:20:28;14.60;47.10
1367;DHT22;16877;48.810;9.282;2023-02-01T12:23:12;14.60;47.10
1367;DHT22;16877;48.810;9.282;2023-02-01T12:25:56;14.50;46.80
1367;DHT22;16877;48.810;9.282;2023-02-01T12:28:39;14.50;47.00
1367;DHT22;16877;48.810;9.282;2023-02-01T12:31:34;14.50;47.10
1367;DHT22;16877;48.810;9.282;2023-02-01T12:34:40;14.50;46.90
1367;DHT22;16877;48.810;9.282;2023-02-01T12:37:16;14.50;47.00
1367;DHT22;16877;48.810;9.282;2023-02-01T12:39:52;14.50;46.80
1367;DHT22;16877;48.810;9.282;2023-02-01T12:42:28;14.50;46.90
1367;DHT22;16877;48.810;9.282;2023-02-01T12:45:02;14.50;50.50
1367;DHT22;16877;48.810;9.282;2023-02-01T12:47:38;14.60;48.90
1367;DHT22;16877;48.810;9.282;2023-02-01T12:50:14;14.70;53.00
1367;DHT22;16877;48.810;9.282;2023-02-01T12:52:50;14.70;49.50
1367;DHT22;16877;48.810;9.282;2023-02-01T12:55:36;14.70;48.20
1367;DHT22;16877;48.810;9.282;2023-02-01T12:58:12;14.60;48.00
1367;DHT22;16877;48.810;9.282;2023-02-01T13:00:43;14.50;47.90
1367;DHT22;16877;48.810;9.282;2023-02-01T13:03:18;14.50;47.70
1367;DHT22;16877;48.810;9.282;2023-02-01T13:05:55;14.50;47.90
1367;DHT22;16877;48.810;9.282;2023-02-01T13:08:35;14.50;47.80
1367;DHT22;16877;48.810;9.282;2023-02-01T13:11:08;14.40;47.80
1367;DHT22;16877;48.810;9.282;2023-02-01T13:13:45;14.40;47.90
1367;DHT22;16877;48.810;9.282;2023-02-01T13:16:17;14.40;47.80
1367;DHT22;16877;48.810;9.282;2023-02-01T13:18:51;14.30;48.20
1367;DHT22;16877;48.810;9.282;2023-02-01T13:21:22;14.30;48.90
1367;DHT22;16877;48.810;9.282;2023-02-01T13:23:52;14.20;49.20
1367;DHT22;16877;48.810;9.282;2023-02-01T13:26:20;14.20;49.70
1367;DHT22;16877;48.810;9.282;2023-02-01T13:28:51;14.20;49.80
1367;DHT22;16877;48.810;9.282;2023-02-01T13:31:53;14.20;49.80
1367;DHT22;16877;48.810;9.282;2023-02-01T13:37:45;14.20;49.40
1367;DHT22;16877;48.810;9.282;2023-02-01T13:40:36;14.10;49.40
1367;DHT22;16877;48.810;9.282;2023-02-01T13:43:13;14.10;49.30
1367;DHT22;16877;48.810;9.282;2023-02-01T13:45:46;14.00;49.20
1367;DHT22;16877;48.810;9.282;2023-02-01T13:48:24;14.10;49.40
1367;DHT22;16877;48.810;9.282;2023-02-01T13:50:57;14.10;49.20
1367;DHT22;16877;48.810;9.282;2023-02-01T13:53:28;14.20;48.90
1367;DHT22;16877;48.810;9.282;2023-02-01T13:55:59;14.20;48.70
1367;DHT22;16877;48.810;9.282;2023-02-01T13:58:32;14.20;48.50
1367;DHT22;16877;48.810;9.282;2023-02-01T14:01:36;14.20;48.60
1367;DHT22;16877;48.810;9.282;2023-02-01T14:04:06;14.20;48.80
1367;DHT22;16877;48.810;9.282;2023-02-01T14:06:55;14.10;49.00
1367;DHT22;16877;48.810;9.282;2023-02-01T14:09:33;14.10;49.00
1367;DHT22;16877;48.810;9.282;2023-02-01T14:15:19;14.10;49.80
1367;DHT22;16877;48.810;9.282;2023-02-01T14:17:50;14.10;49.70
1367;DHT22;16877;48.810;9.282;2023-02-01T14:23:15;14.10;49.60
1367;DHT22;16877;48.810;9.282;2023-02-01T14:25:43;14.10;49.50
1367;DHT22;16877;48.810;9.282;2023-02-01T14:28:18;14.10;49.50
1367;DHT22;16877;48.810;9.282;2023-02-01T14:30:53;14.10;49.50
1367;DHT22;16877;48.810;9.282;2023-02-01T14:33:22;14.10;49.60
1367;DHT22;16877;48.810;9.282;2023-02-01T14:36:04;14.10;49.60
1367;DHT22;16877;48.810;9.282;2023-02-01T14:38:47;14.10;49.40
1367;DHT22;16877;48.810;9.282;2023-02-01T14:41:32;14.10;49.30
1367;DHT22;16877;48.810;9.282;2023-02-01T14:44:26;14.10;49.30
1367;DHT22;16877;48.810;9.282;2023-02-01T14:52:40;14.10;48.90
1367;DHT22;16877;48.810;9.282;2023-02-01T14:55:15;14.10;48.80
1367;DHT22;16877;48.810;9.282;2023-02-01T14:57:49;14.10;48.90
1367;DHT22;16877;48.810;9.282;2023-02-01T15:00:22;14.10;48.90
1367;DHT22;16877;48.810;9.282;2023-02-01T15:02:50;14.10;48.90
1367;DHT22;16877;48.810;9.282;2023-02-01T15:05:29;14.00;48.60
1367;DHT22;16877;48.810;9.282;2023-02-01T15:08:11;14.00;48.70
1367;DHT22;16877;48.810;9.282;2023-02-01T15:10:52;14.00;48.80
1367;DHT22;16877;48.810;9.282;2023-02-01T15:13:23;14.00;48.80
1367;DHT22;16877;48.810;9.282;2023-02-01T15:16:01;14.00;49.10
1367;DHT22;16877;48.810;9.282;2023-02-01T15:18:29;14.00;49.00
1367;DHT22;16877;48.810;9.282;2023-02-01T15:20:56;14.00;48.80
1367;DHT22;16877;48.810;9.282;2023-02-01T15:23:26;14.00;48.50
1367;DHT22;16877;48.810;9.282;2023-02-01T15:25:58;13.90;48.20
1367;DHT22;16877;48.810;9.282;2023-02-01T15:28:27;13.90;48.30
1367;DHT22;16877;48.810;9.282;2023-02-01T15:30:56;13.90;48.60
1367;DHT22;16877;48.810;9.282;2023-02-01T15:33:25;13.90;48.40
1367;DHT22;16877;48.810;9.282;2023-02-01T15:35:54;13.90;48.30
1367;DHT22;16877;48.810;9.282;2023-02-01T15:38:41;13.90;48.30
1367;DHT22;16877;48.810;9.282;2023-02-01T15:41:14;13.90;48.40
1367;DHT22;16877;48.810;9.282;2023-02-01T15:43:44;13.90;48.40
1367;DHT22;16877;48.810;9.282;2023-02-01T15:46:16;13.90;48.50
1367;DHT22;16877;48.810;9.282;2023-02-01T15:48:46;13.90;48.40
1367;DHT22;16877;48.810;9.282;2023-02-01T15:51:17;14.00;48.30
1367;DHT22;16877;48.810;9.282;2023-02-01T15:53:51;14.00;48.30
1367;DHT22;16877;48.810;9.282;2023-02-01T15:56:28;13.90;48.00
1367;DHT22;16877;48.810;9.282;2023-02-01T15:58:59;13.90;48.20
1367;DHT22;16877;48.810;9.282;2023-02-01T16:01:27;13.90;48.00
1367;DHT22;16877;48.810;9.282;2023-02-01T16:04:04;14.00;48.40
1367;DHT22;16877;48.810;9.282;2023-02-01T16:06:38;13.90;48.10
1367;DHT22;16877;48.810;9.282;2023-02-01T16:09:13;13.90;47.90
1367;DHT22;16877;48.810;9.282;2023-02-01T16:11:48;13.90;47.90
1367;DHT22;16877;48.810;9.282;2023-02-01T16:14:16;13.90;47.80
1367;DHT22;16877;48.810;9.282;2023-02-01T16:16:44;13.90;48.00
1367;DHT22;16877;48.810;9.282;2023-02-01T16:19:11;13.90;48.20
1367;DHT22;16877;48.810;9.282;2023-02-01T16:21:38;13.90;48.20
1367;DHT22;16877;48.810;9.282;2023-02-01T16:24:06;13.90;48.20
1367;DHT22;16877;48.810;9.282;2023-02-01T16:26:34;13.90;47.60
1367;DHT22;16877;48.810;9.282;2023-02-01T16:29:05;13.90;47.40
1367;DHT22;16877;48.810;9.282;2023-02-01T16:31:36;13.90;47.40
1367;DHT22;16877;48.810;9.282;2023-02-01T16:34:04;13.90;47.40
1367;DHT22;16877;48.810;9.282;2023-02-01T16:36:32;13.90;47.40
1367;DHT22;16877;48.810;9.282;2023-02-01T16:39:00;13.90;47.50
1367;DHT22;16877;48.810;9.282;2023-02-01T16:41:28;13.90;47.40
1367;DHT22;16877;48.810;9.282;2023-02-01T16:43:57;13.90;47.50